sensor_id;sensor_type;location;lat;lon;timestamp;temperature;humidity
18384;DHT22;9318;48.644;9.456;2022-12-15T00:01:01;3.80;99.90
18384;DHT22;9318;48.644;9.456;2022-12-15T00:03:45;4.00;99.90
18384;DHT22;9318;48.644;9.456;2022-12-15T00:06:30;3.70;99.90
18384;DHT22;9318;48.644;9.456;2022-12-15T00:09:15;3.30;99.90
18384;DHT22;9318;48.644;9.456;2022-12-15T00:11:59;3.20;99.90
18384;DHT22;9318;48.644;9.456;2022-12-15T00:14:43;3.00;99.90
18384;DHT22;9318;48.644;9.456;2022-12-15T00:17:28;3.30;99.90
18384;DHT22;9318;48.644;9.456;2022-12-15T00:20:13;3.30;99.90
18384;DHT22;9318;48.644;9.456;2022-12-15T00:23:06;2.90;99.90
18384;DHT22;9318;48.644;9.456;2022-12-15T00:25:50;2.50;99.90
18384;DHT22;9318;48.644;9.456;2022-12-15T00:28:34;2.50;99.90
18384;DHT22;9318;48.644;9.456;2022-12-15T00:31:18;2.80;99.90
18384;DHT22;9318;48.644;9.456;2022-12-15T00:34:03;3.00;99.90
18384;DHT22;9318;48.644;9.456;2022-12-15T00:36:47;2.70;99.90
18384;DHT22;9318;48.644;9.456;2022-12-15T00:39:33;3.10;99.90
18384;DHT22;9318;48.644;9.456;2022-12-15T00:42:00;3.10;99.90
18384;DHT22;9318;48.644;9.456;2022-12-15T00:44:26;3.00;99.90
18384;DHT22;9318;48.644;9.456;2022-12-15T00:46:53;2.80;99.90
18384;DHT22;9318;48.644;9.456;2022-12-15T00:49:20;3.10;99.90
18384;DHT22;9318;48.644;9.456;2022-12-15T00:52:04;3.60;99.90
18384;DHT22;9318;48.644;9.456;2022-12-15T00:54:50;3.40;99.90
18384;DHT22;9318;48.644;9.456;2022-12-15T00:57:34;3.40;99.90
18384;DHT22;9318;48.644;9.456;2022-12-15T01:00:19;3.30;99.90
18384;DHT22;9318;48.644;9.456;2022-12-15T01:03:10;3.20;99.90
18384;DHT22;9318;48.644;9.456;2022-12-15T01:05:54;3.00;99.90
18384;DHT22;9318;48.644;9.456;2022-12-15T01:08:38;2.90;99.90
18384;DHT22;9318;48.644;9.456;2022-12-15T01:11:24;2.80;99.90
18384;DHT22;9318;48.644;9.456;2022-12-15T01:14:09;2.80;99.90
18384;DHT22;9318;48.644;9.456;2022-12-15T01:16:53;3.00;99.90
18384;DHT22;9318;48.644;9.456;2022-12-15T01:19:38;2.90;99.90
18384;DHT22;9318;48.644;9.456;2022-12-15T01:22:23;2.50;99.90
18384;DHT22;9318;48.644;9.456;2022-12-15T01:24:50;2.90;99.90
18384;DHT22;9318;48.644;9.456;2022-12-15T01:27:18;3.10;99.90
18384;DHT22;9318;48.644;9.456;2022-12-15T01:29:45;3.30;99.90
18384;DHT22;9318;48.644;9.456;2022-12-15T01:32:12;3.00;99.90
18384;DHT22;9318;48.644;9.456;2022-12-15T01:34:39;2.90;99.90
18384;DHT22;9318;48.644;9.456;2022-12-15T01:37:06;3.10;99.90
18384;DHT22;9318;48.644;9.456;2022-12-15T01:39:33;3.20;99.90
18384;DHT22;9318;48.644;9.456;2022-12-15T01:42:14;3.10;99.90
18384;DHT22;9318;48.644;9.456;2022-12-15T01:44:43;3.20;99.90
18384;DHT22;9318;48.644;9.456;2022-12-15T01:47:12;2.90;99.90
18384;DHT22;9318;48.644;9.456;2022-12-15T01:49:41;2.70;99.90
18384;DHT22;9318;48.644;9.456;2022-12-15T01:52:14;2.60;99.90
18384;DHT22;9318;48.644;9.456;2022-12-15T01:54:45;2.70;99.90
18384;DHT22;9318;48.644;9.456;2022-12-15T01:57:17;2.80;99.90
18384;DHT22;9318;48.644;9.456;2022-12-15T01:59:49;2.90;99.90
18384;DHT22;9318;48.644;9.456;2022-12-15T02:02:19;3.00;99.90
18384;DHT22;9318;48.644;9.456;2022-12-15T02:04:49;3.30;99.90
18384;DHT22;9318;48.644;9.456;2022-12-15T02:07:17;3.60;99.90
18384;DHT22;9318;48.644;9.456;2022-12-15T02:09:46;3.50;99.90
18384;DHT22;9318;48.644;9.456;2022-12-15T02:12:24;3.60;99.90
18384;DHT22;9318;48.644;9.456;2022-12-15T02:15:02;3.90;99.90
18384;DHT22;9318;48.644;9.456;2022-12-15T02:17:38;4.00;99.90
18384;DHT22;9318;48.644;9.456;2022-12-15T02:20:27;3.90;99.90
18384;DHT22;9318;48.644;9.456;2022-12-15T02:23:40;3.70;99.90
18384;DHT22;9318;48.644;9.456;2022-12-15T02:29:37;3.90;99.90
18384;DHT22;9318;48.644;9.456;2022-12-15T02:32:09;3.90;99.90
18384;DHT22;9318;48.644;9.456;2022-12-15T02:34:42;3.90;99.90
18384;DHT22;9318;48.644;9.456;2022-12-15T02:37:13;4.00;99.90
18384;DHT22;9318;48.644;9.456;2022-12-15T02:39:43;3.80;99.90
18384;DHT22;9318;48.644;9.456;2022-12-15T02:42:11;3.80;99.90
18384;DHT22;9318;48.644;9.456;2022-12-15T02:44:42;3.90;99.90
18384;DHT22;9318;48.644;9.456;2022-12-15T02:47:22;3.80;99.90
18384;DHT22;9318;48.644;9.456;2022-12-15T02:50:03;3.80;99.90
18384;DHT22;9318;48.644;9.456;2022-12-15T02:52:45;3.70;99.90
18384;DHT22;9318;48.644;9.456;2022-12-15T02:55:17;3.90;99.90
18384;DHT22;9318;48.644;9.456;2022-12-15T02:57:52;3.90;99.90
18384;DHT22;9318;48.644;9.456;2022-12-15T03:00:21;3.90;99.90
18384;DHT22;9318;48.644;9.456;2022-12-15T03:02:51;4.00;99.90
18384;DHT22;9318;48.644;9.456;2022-12-15T03:05:20;4.00;99.90
18384;DHT22;9318;48.644;9.456;2022-12-15T03:07:48;4.20;99.90
18384;DHT22;9318;48.644;9.456;2022-12-15T03:10:16;4.30;99.90
18384;DHT22;9318;48.644;9.456;2022-12-15T03:12:43;4.20;99.90
18384;DHT22;9318;48.644;9.456;2022-12-15T03:15:11;4.30;99.90
18384;DHT22;9318;48.644;9.456;2022-12-15T03:17:38;4.40;99.90
18384;DHT22;9318;48.644;9.456;2022-12-15T03:20:08;4.10;99.90
18384;DHT22;9318;48.644;9.456;2022-12-15T03:22:35;3.80;99.90
18384;DHT22;9318;48.644;9.456;2022-12-15T03:25:03;4.00;99.90
18384;DHT22;9318;48.644;9.456;2022-12-15T03:27:31;4.10;99.90
18384;DHT22;9318;48.644;9.456;2022-12-15T03:29:58;4.00;99.90
18384;DHT22;9318;48.644;9.456;2022-12-15T03:32:25;3.40;99.90
18384;DHT22;9318;48.644;9.456;2022-12-15T03:34:52;3.50;99.90
18384;DHT22;9318;48.644;9.456;2022-12-15T03:37:21;3.80;99.90
18384;DHT22;9318;48.644;9.456;2022-12-15T03:39:48;3.70;99.90
18384;DHT22;9318;48.644;9.456;2022-12-15T03:42:15;3.70;99.90
18384;DHT22;9318;48.644;9.456;2022-12-15T03:45:02;3.70;99.90
18384;DHT22;9318;48.644;9.456;2022-12-15T03:47:29;4.00;99.90
18384;DHT22;9318;48.644;9.456;2022-12-15T03:49:57;3.70;99.90
18384;DHT22;9318;48.644;9.456;2022-12-15T03:52:25;3.60;99.90
18384;DHT22;9318;48.644;9.456;2022-12-15T03:54:52;3.30;99.90
18384;DHT22;9318;48.644;9.456;2022-12-15T03:57:19;3.50;99.90
18384;DHT22;9318;48.644;9.456;2022-12-15T03:59:46;3.30;99.90
18384;DHT22;9318;48.644;9.456;2022-12-15T04:02:13;3.50;99.90
18384;DHT22;9318;48.644;9.456;2022-12-15T04:04:41;3.70;99.90
18384;DHT22;9318;48.644;9.456;2022-12-15T04:07:08;3.60;99.90
18384;DHT22;9318;48.644;9.456;2022-12-15T04:09:36;3.80;99.90
18384;DHT22;9318;48.644;9.456;2022-12-15T04:12:04;3.50;99.90
18384;DHT22;9318;48.644;9.456;2022-12-15T04:14:31;3.60;99.90
18384;DHT22;9318;48.644;9.456;2022-12-15T04:16:58;3.40;99.90
18384;DHT22;9318;48.644;9.456;2022-12-15T04:19:25;3.40;99.90
18384;DHT22;9318;48.644;9.456;2022-12-15T04:22:06;3.70;99.90
18384;DHT22;9318;48.644;9.456;2022-12-15T04:24:33;3.70;99.90
18384;DHT22;9318;48.644;9.456;2022-12-15T04:27:19;3.80;99.90
18384;DHT22;9318;48.644;9.456;2022-12-15T04:30:04;3.70;99.90
18384;DHT22;9318;48.644;9.456;2022-12-15T04:32:48;3.70;99.90
18384;DHT22;9318;48.644;9.456;2022-12-15T04:35:33;3.50;99.90
18384;DHT22;9318;48.644;9.456;2022-12-15T04:38:18;3.30;99.90
18384;DHT22;9318;48.644;9.456;2022-12-15T04:41:03;3.30;99.90
18384;DHT22;9318;48.644;9.456;2022-12-15T04:43:49;3.50;99.90
18384;DHT22;9318;48.644;9.456;2022-12-15T04:46:33;3.60;99.90
18384;DHT22;9318;48.644;9.456;2022-12-15T04:49:18;3.50;99.90
18384;DHT22;9318;48.644;9.456;2022-12-15T04:52:02;3.60;99.90
18384;DHT22;9318;48.644;9.456;2022-12-15T04:54:46;3.50;99.90
18384;DHT22;9318;48.644;9.456;2022-12-15T04:57:30;3.30;99.90
18384;DHT22;9318;48.644;9.456;2022-12-15T05:00:16;3.30;99.90
18384;DHT22;9318;48.644;9.456;2022-12-15T05:03:03;3.20;99.90
18384;DHT22;9318;48.644;9.456;2022-12-15T05:05:48;3.10;99.90
18384;DHT22;9318;48.644;9.456;2022-12-15T05:08:32;3.40;99.90
18384;DHT22;9318;48.644;9.456;2022-12-15T05:11:16;3.40;99.90
18384;DHT22;9318;48.644;9.456;2022-12-15T05:14:01;3.60;99.90
18384;DHT22;9318;48.644;9.456;2022-12-15T05:16:47;3.80;99.90
18384;DHT22;9318;48.644;9.456;2022-12-15T05:19:31;3.60;99.90
18384;DHT22;9318;48.644;9.456;2022-12-15T05:22:16;3.60;99.90
18384;DHT22;9318;48.644;9.456;2022-12-15T05:25:00;3.60;99.90
18384;DHT22;9318;48.644;9.456;2022-12-15T05:27:44;3.60;99.90
18384;DHT22;9318;48.644;9.456;2022-12-15T05:30:28;3.50;99.90
18384;DHT22;9318;48.644;9.456;2022-12-15T05:33:14;3.60;99.90
18384;DHT22;9318;48.644;9.456;2022-12-15T05:35:41;3.40;99.90
18384;DHT22;9318;48.644;9.456;2022-12-15T05:38:08;3.50;99.90
18384;DHT22;9318;48.644;9.456;2022-12-15T05:40:35;3.20;99.90
18384;DHT22;9318;48.644;9.456;2022-12-15T05:43:03;3.00;99.90
18384;DHT22;9318;48.644;9.456;2022-12-15T05:45:30;3.00;99.90
18384;DHT22;9318;48.644;9.456;2022-12-15T05:47:57;3.20;99.90
18384;DHT22;9318;48.644;9.456;2022-12-15T05:50:26;3.10;99.90
18384;DHT22;9318;48.644;9.456;2022-12-15T05:52:53;3.30;99.90
18384;DHT22;9318;48.644;9.456;2022-12-15T05:55:20;3.30;99.90
18384;DHT22;9318;48.644;9.456;2022-12-15T05:57:50;3.30;99.90
18384;DHT22;9318;48.644;9.456;2022-12-15T06:00:18;3.10;99.90
18384;DHT22;9318;48.644;9.456;2022-12-15T06:02:45;3.20;99.90
18384;DHT22;9318;48.644;9.456;2022-12-15T06:05:13;3.30;99.90
18384;DHT22;9318;48.644;9.456;2022-12-15T06:07:41;3.10;99.90
18384;DHT22;9318;48.644;9.456;2022-12-15T06:10:09;3.10;99.90
18384;DHT22;9318;48.644;9.456;2022-12-15T06:12:36;3.20;99.90
18384;DHT22;9318;48.644;9.456;2022-12-15T06:15:04;3.50;99.90
18384;DHT22;9318;48.644;9.456;2022-12-15T06:17:32;3.30;99.90
18384;DHT22;9318;48.644;9.456;2022-12-15T06:20:02;3.30;99.90
18384;DHT22;9318;48.644;9.456;2022-12-15T06:22:29;3.50;99.90
18384;DHT22;9318;48.644;9.456;2022-12-15T06:24:58;3.60;99.90
18384;DHT22;9318;48.644;9.456;2022-12-15T06:27:25;3.60;99.90
18384;DHT22;9318;48.644;9.456;2022-12-15T06:29:52;3.50;99.90
18384;DHT22;9318;48.644;9.456;2022-12-15T06:32:19;3.70;99.90
18384;DHT22;9318;48.644;9.456;2022-12-15T06:34:47;3.70;99.90
18384;DHT22;9318;48.644;9.456;2022-12-15T06:37:14;3.80;99.90
18384;DHT22;9318;48.644;9.456;2022-12-15T06:39:42;3.70;99.90
18384;DHT22;9318;48.644;9.456;2022-12-15T06:42:10;3.70;99.90
18384;DHT22;9318;48.644;9.456;2022-12-15T06:44:39;3.60;99.90
18384;DHT22;9318;48.644;9.456;2022-12-15T06:47:06;3.80;99.90
18384;DHT22;9318;48.644;9.456;2022-12-15T06:49:33;4.00;99.90
18384;DHT22;9318;48.644;9.456;2022-12-15T06:52:00;4.00;99.90
18384;DHT22;9318;48.644;9.456;2022-12-15T06:54:28;4.00;99.90
18384;DHT22;9318;48.644;9.456;2022-12-15T06:56:55;3.90;99.90
18384;DHT22;9318;48.644;9.456;2022-12-15T06:59:23;3.90;99.90
18384;DHT22;9318;48.644;9.456;2022-12-15T07:01:50;3.90;99.90
18384;DHT22;9318;48.644;9.456;2022-12-15T07:04:18;3.90;99.90
18384;DHT22;9318;48.644;9.456;2022-12-15T07:06:45;3.90;99.90
18384;DHT22;9318;48.644;9.456;2022-12-15T07:09:13;3.80;99.90
18384;DHT22;9318;48.644;9.456;2022-12-15T07:11:42;4.00;99.90
18384;DHT22;9318;48.644;9.456;2022-12-15T07:14:09;4.10;99.90
18384;DHT22;9318;48.644;9.456;2022-12-15T07:16:38;4.20;99.90
18384;DHT22;9318;48.644;9.456;2022-12-15T07:19:07;4.10;99.90
18384;DHT22;9318;48.644;9.456;2022-12-15T07:21:36;4.20;99.90
18384;DHT22;9318;48.644;9.456;2022-12-15T07:24:03;4.20;99.90
18384;DHT22;9318;48.644;9.456;2022-12-15T07:26:31;4.30;99.90
18384;DHT22;9318;48.644;9.456;2022-12-15T07:28:58;4.30;99.90
18384;DHT22;9318;48.644;9.456;2022-12-15T07:31:25;4.10;99.90
18384;DHT22;9318;48.644;9.456;2022-12-15T07:33:53;4.10;99.90
18384;DHT22;9318;48.644;9.456;2022-12-15T07:36:21;4.20;99.90
18384;DHT22;9318;48.644;9.456;2022-12-15T07:38:48;4.10;99.90
18384;DHT22;9318;48.644;9.456;2022-12-15T07:41:15;4.20;99.90
18384;DHT22;9318;48.644;9.456;2022-12-15T07:43:42;4.10;99.90
18384;DHT22;9318;48.644;9.456;2022-12-15T07:46:10;3.80;99.90
18384;DHT22;9318;48.644;9.456;2022-12-15T07:48:37;3.50;99.90
18384;DHT22;9318;48.644;9.456;2022-12-15T07:51:06;3.50;99.90
18384;DHT22;9318;48.644;9.456;2022-12-15T07:53:34;3.90;99.90
18384;DHT22;9318;48.644;9.456;2022-12-15T07:56:03;3.90;99.90
18384;DHT22;9318;48.644;9.456;2022-12-15T07:58:31;3.40;99.90
18384;DHT22;9318;48.644;9.456;2022-12-15T08:00:59;3.40;99.90
18384;DHT22;9318;48.644;9.456;2022-12-15T08:03:26;3.60;99.90
18384;DHT22;9318;48.644;9.456;2022-12-15T08:05:54;3.60;99.90
18384;DHT22;9318;48.644;9.456;2022-12-15T08:08:23;3.60;99.90
18384;DHT22;9318;48.644;9.456;2022-12-15T08:10:50;3.40;99.90
18384;DHT22;9318;48.644;9.456;2022-12-15T08:13:17;3.40;99.90
18384;DHT22;9318;48.644;9.456;2022-12-15T08:15:45;3.50;99.90
18384;DHT22;9318;48.644;9.456;2022-12-15T08:18:12;3.70;99.90
18384;DHT22;9318;48.644;9.456;2022-12-15T08:20:39;3.90;99.90
18384;DHT22;9318;48.644;9.456;2022-12-15T08:23:06;4.20;99.90
18384;DHT22;9318;48.644;9.456;2022-12-15T08:25:35;4.30;99.90
18384;DHT22;9318;48.644;9.456;2022-12-15T08:28:02;4.20;99.90
18384;DHT22;9318;48.644;9.456;2022-12-15T08:30:31;4.40;99.90
18384;DHT22;9318;48.644;9.456;2022-12-15T08:32:59;4.40;99.90
18384;DHT22;9318;48.644;9.456;2022-12-15T08:35:27;4.50;99.90
18384;DHT22;9318;48.644;9.456;2022-12-15T08:37:54;4.60;99.90
18384;DHT22;9318;48.644;9.456;2022-12-15T08:40:21;4.50;99.90
18384;DHT22;9318;48.644;9.456;2022-12-15T08:42:50;4.40;99.90
18384;DHT22;9318;48.644;9.456;2022-12-15T08:45:17;4.10;99.90
18384;DHT22;9318;48.644;9.456;2022-12-15T08:47:44;4.30;99.90
18384;DHT22;9318;48.644;9.456;2022-12-15T08:50:11;4.40;99.90
18384;DHT22;9318;48.644;9.456;2022-12-15T08:52:38;4.50;99.90
18384;DHT22;9318;48.644;9.456;2022-12-15T08:55:08;4.60;99.90
18384;DHT22;9318;48.644;9.456;2022-12-15T08:57:36;4.70;99.90
18384;DHT22;9318;48.644;9.456;2022-12-15T09:00:06;4.60;99.90
18384;DHT22;9318;48.644;9.456;2022-12-15T09:02:33;4.70;99.90
18384;DHT22;9318;48.644;9.456;2022-12-15T09:05:01;4.60;99.90
18384;DHT22;9318;48.644;9.456;2022-12-15T09:07:28;4.40;99.90
18384;DHT22;9318;48.644;9.456;2022-12-15T09:09:55;4.50;99.90
18384;DHT22;9318;48.644;9.456;2022-12-15T09:12:22;4.60;99.90
18384;DHT22;9318;48.644;9.456;2022-12-15T09:14:49;4.90;99.90
18384;DHT22;9318;48.644;9.456;2022-12-15T09:17:18;5.00;99.90
18384;DHT22;9318;48.644;9.456;2022-12-15T09:19:45;4.90;99.90
18384;DHT22;9318;48.644;9.456;2022-12-15T09:22:12;5.00;99.90
18384;DHT22;9318;48.644;9.456;2022-12-15T09:24:39;5.00;99.90
18384;DHT22;9318;48.644;9.456;2022-12-15T09:27:06;4.80;99.90
18384;DHT22;9318;48.644;9.456;2022-12-15T09:29:34;4.60;99.90
18384;DHT22;9318;48.644;9.456;2022-12-15T09:32:02;4.70;99.90
18384;DHT22;9318;48.644;9.456;2022-12-15T09:34:31;4.90;99.90
18384;DHT22;9318;48.644;9.456;2022-12-15T09:36:58;5.20;99.90
18384;DHT22;9318;48.644;9.456;2022-12-15T09:39:25;5.30;99.90
18384;DHT22;9318;48.644;9.456;2022-12-15T09:41:54;5.40;99.90
18384;DHT22;9318;48.644;9.456;2022-12-15T09:44:25;5.00;99.90
18384;DHT22;9318;48.644;9.456;2022-12-15T09:47:13;4.80;99.90
18384;DHT22;9318;48.644;9.456;2022-12-15T09:49:54;5.20;99.90
18384;DHT22;9318;48.644;9.456;2022-12-15T09:52:24;5.30;99.90
18384;DHT22;9318;48.644;9.456;2022-12-15T09:54:51;5.60;99.90
18384;DHT22;9318;48.644;9.456;2022-12-15T09:57:34;5.80;99.90
18384;DHT22;9318;48.644;9.456;2022-12-15T10:00:12;5.50;99.90
18384;DHT22;9318;48.644;9.456;2022-12-15T10:06:03;5.10;99.90
18384;DHT22;9318;48.644;9.456;2022-12-15T10:08:33;5.40;99.90
18384;DHT22;9318;48.644;9.456;2022-12-15T10:11:12;5.20;99.90
18384;DHT22;9318;48.644;9.456;2022-12-15T10:13:46;5.40;99.90
18384;DHT22;9318;48.644;9.456;2022-12-15T10:16:21;5.30;99.90
18384;DHT22;9318;48.644;9.456;2022-12-15T10:18:56;5.10;99.90
18384;DHT22;9318;48.644;9.456;2022-12-15T10:21:27;5.10;99.90
18384;DHT22;9318;48.644;9.456;2022-12-15T10:24:00;5.20;99.90
18384;DHT22;9318;48.644;9.456;2022-12-15T10:26:33;5.00;99.90
18384;DHT22;9318;48.644;9.456;2022-12-15T10:29:20;4.70;99.90
18384;DHT22;9318;48.644;9.456;2022-12-15T10:31:51;4.80;99.90
18384;DHT22;9318;48.644;9.456;2022-12-15T10:34:24;5.00;99.90
18384;DHT22;9318;48.644;9.456;2022-12-15T10:36:54;5.10;99.90
18384;DHT22;9318;48.644;9.456;2022-12-15T10:39:22;5.30;99.90
18384;DHT22;9318;48.644;9.456;2022-12-15T10:42:12;5.30;99.90
18384;DHT22;9318;48.644;9.456;2022-12-15T10:44:41;5.30;99.90
18384;DHT22;9318;48.644;9.456;2022-12-15T10:47:10;5.30;99.90
18384;DHT22;9318;48.644;9.456;2022-12-15T10:49:41;5.40;99.90
18384;DHT22;9318;48.644;9.456;2022-12-15T10:52:18;5.40;99.90
18384;DHT22;9318;48.644;9.456;2022-12-15T10:54:49;5.40;99.90
18384;DHT22;9318;48.644;9.456;2022-12-15T10:57:19;5.50;99.90
18384;DHT22;9318;48.644;9.456;2022-12-15T10:59:47;5.60;99.90
18384;DHT22;9318;48.644;9.456;2022-12-15T11:02:29;5.50;99.90
18384;DHT22;9318;48.644;9.456;2022-12-15T11:05:04;5.50;99.90
18384;DHT22;9318;48.644;9.456;2022-12-15T11:07:38;5.50;99.90
18384;DHT22;9318;48.644;9.456;2022-12-15T11:10:24;5.30;99.90
18384;DHT22;9318;48.644;9.456;2022-12-15T11:12:59;4.80;99.90
18384;DHT22;9318;48.644;9.456;2022-12-15T11:15:43;4.90;99.90
18384;DHT22;9318;48.644;9.456;2022-12-15T11:18:20;5.20;99.90
18384;DHT22;9318;48.644;9.456;2022-12-15T11:20:51;5.30;99.90
18384;DHT22;9318;48.644;9.456;2022-12-15T11:23:27;5.50;99.90
18384;DHT22;9318;48.644;9.456;2022-12-15T11:25:59;5.40;99.90
18384;DHT22;9318;48.644;9.456;2022-12-15T11:28:33;5.20;99.90
18384;DHT22;9318;48.644;9.456;2022-12-15T11:31:10;5.20;99.90
18384;DHT22;9318;48.644;9.456;2022-12-15T11:33:39;5.30;99.90
18384;DHT22;9318;48.644;9.456;2022-12-15T11:36:12;5.60;99.90
18384;DHT22;9318;48.644;9.456;2022-12-15T11:38:47;5.70;99.90
18384;DHT22;9318;48.644;9.456;2022-12-15T11:41:28;5.60;99.90
18384;DHT22;9318;48.644;9.456;2022-12-15T11:44:17;5.60;99.90
18384;DHT22;9318;48.644;9.456;2022-12-15T11:46:59;5.60;99.90
18384;DHT22;9318;48.644;9.456;2022-12-15T11:50:07;5.90;99.90
18384;DHT22;9318;48.644;9.456;2022-12-15T11:52:49;6.30;99.90
18384;DHT22;9318;48.644;9.456;2022-12-15T11:55:27;6.20;99.90
18384;DHT22;9318;48.644;9.456;2022-12-15T11:58:12;6.10;99.90
18384;DHT22;9318;48.644;9.456;2022-12-15T12:00:53;6.10;99.90
18384;DHT22;9318;48.644;9.456;2022-12-15T12:03:32;6.00;99.90
18384;DHT22;9318;48.644;9.456;2022-12-15T12:06:09;6.10;99.90
18384;DHT22;9318;48.644;9.456;2022-12-15T12:09:11;6.10;99.90
18384;DHT22;9318;48.644;9.456;2022-12-15T12:11:49;6.30;99.90
18384;DHT22;9318;48.644;9.456;2022-12-15T12:14:27;6.70;99.90
18384;DHT22;9318;48.644;9.456;2022-12-15T12:17:02;6.70;99.90
18384;DHT22;9318;48.644;9.456;2022-12-15T12:19:35;6.70;99.90
18384;DHT22;9318;48.644;9.456;2022-12-15T12:22:10;6.70;99.90
18384;DHT22;9318;48.644;9.456;2022-12-15T12:24:43;6.70;99.90
18384;DHT22;9318;48.644;9.456;2022-12-15T12:27:22;6.80;99.90
18384;DHT22;9318;48.644;9.456;2022-12-15T12:29:57;6.80;99.90
18384;DHT22;9318;48.644;9.456;2022-12-15T12:32:32;6.90;99.90
18384;DHT22;9318;48.644;9.456;2022-12-15T12:35:05;6.70;99.90
18384;DHT22;9318;48.644;9.456;2022-12-15T12:37:35;6.60;99.90
18384;DHT22;9318;48.644;9.456;2022-12-15T12:40:13;6.40;99.90
18384;DHT22;9318;48.644;9.456;2022-12-15T12:42:48;6.50;99.90
18384;DHT22;9318;48.644;9.456;2022-12-15T12:45:18;6.40;99.90
18384;DHT22;9318;48.644;9.456;2022-12-15T12:47:50;6.50;99.90
18384;DHT22;9318;48.644;9.456;2022-12-15T12:50:20;6.60;99.90
18384;DHT22;9318;48.644;9.456;2022-12-15T12:52:50;6.60;99.90
18384;DHT22;9318;48.644;9.456;2022-12-15T12:55:27;6.50;99.90
18384;DHT22;9318;48.644;9.456;2022-12-15T12:57:57;6.30;99.90
18384;DHT22;9318;48.644;9.456;2022-12-15T13:00:25;6.10;99.90
18384;DHT22;9318;48.644;9.456;2022-12-15T13:03:13;6.10;99.90
18384;DHT22;9318;48.644;9.456;2022-12-15T13:05:44;5.90;99.90
18384;DHT22;9318;48.644;9.456;2022-12-15T13:11:54;5.70;99.90
18384;DHT22;9318;48.644;9.456;2022-12-15T13:17:26;5.60;99.90
18384;DHT22;9318;48.644;9.456;2022-12-15T13:20:27;5.60;99.90
18384;DHT22;9318;48.644;9.456;2022-12-15T13:25:40;5.50;99.90
18384;DHT22;9318;48.644;9.456;2022-12-15T13:28:25;5.60;99.90
18384;DHT22;9318;48.644;9.456;2022-12-15T13:31:29;5.60;99.90
18384;DHT22;9318;48.644;9.456;2022-12-15T13:34:18;5.50;99.90
18384;DHT22;9318;48.644;9.456;2022-12-15T13:36:59;5.30;99.90
18384;DHT22;9318;48.644;9.456;2022-12-15T13:42:34;5.20;99.90
18384;DHT22;9318;48.644;9.456;2022-12-15T13:45:30;5.20;99.90
18384;DHT22;9318;48.644;9.456;2022-12-15T13:51:02;5.30;99.90
18384;DHT22;9318;48.644;9.456;2022-12-15T13:53:37;5.30;99.90
18384;DHT22;9318;48.644;9.456;2022-12-15T13:56:20;5.40;99.90
18384;DHT22;9318;48.644;9.456;2022-12-15T13:58:56;5.40;99.90
18384;DHT22;9318;48.644;9.456;2022-12-15T14:01:27;5.50;99.90
18384;DHT22;9318;48.644;9.456;2022-12-15T14:04:09;5.60;99.90
18384;DHT22;9318;48.644;9.456;2022-12-15T14:06:48;5.60;99.90
18384;DHT22;9318;48.644;9.456;2022-12-15T14:09:19;5.30;99.90
18384;DHT22;9318;48.644;9.456;2022-12-15T14:11:47;5.40;99.90
18384;DHT22;9318;48.644;9.456;2022-12-15T14:14:18;5.30;99.90
18384;DHT22;9318;48.644;9.456;2022-12-15T14:16:52;5.40;99.90
18384;DHT22;9318;48.644;9.456;2022-12-15T14:19:22;5.50;99.90
18384;DHT22;9318;48.644;9.456;2022-12-15T14:21:51;5.40;99.90
18384;DHT22;9318;48.644;9.456;2022-12-15T14:24:27;5.50;99.90
18384;DHT22;9318;48.644;9.456;2022-12-15T14:26:54;5.50;99.90
18384;DHT22;9318;48.644;9.456;2022-12-15T14:29:22;5.60;99.90
18384;DHT22;9318;48.644;9.456;2022-12-15T14:31:53;5.60;99.90
18384;DHT22;9318;48.644;9.456;2022-12-15T14:34:27;5.60;99.90
18384;DHT22;9318;48.644;9.456;2022-12-15T14:36:57;5.50;99.90
18384;DHT22;9318;48.644;9.456;2022-12-15T14:39:31;5.30;99.90
18384;DHT22;9318;48.644;9.456;2022-12-15T14:42:01;5.30;99.90
18384;DHT22;9318;48.644;9.456;2022-12-15T14:44:32;5.20;99.90
18384;DHT22;9318;48.644;9.456;2022-12-15T14:47:02;5.10;99.90
18384;DHT22;9318;48.644;9.456;2022-12-15T14:49:40;5.20;99.90
18384;DHT22;9318;48.644;9.456;2022-12-15T14:52:25;5.10;99.90
18384;DHT22;9318;48.644;9.456;2022-12-15T14:54:55;5.30;99.90
18384;DHT22;9318;48.644;9.456;2022-12-15T14:57:25;5.30;99.90
18384;DHT22;9318;48.644;9.456;2022-12-15T14:59:52;5.30;99.90
18384;DHT22;9318;48.644;9.456;2022-12-15T15:02:22;5.30;99.90
18384;DHT22;9318;48.644;9.456;2022-12-15T15:04:57;5.50;99.90
18384;DHT22;9318;48.644;9.456;2022-12-15T15:07:27;5.70;99.90
18384;DHT22;9318;48.644;9.456;2022-12-15T15:09:55;5.60;99.90
18384;DHT22;9318;48.644;9.456;2022-12-15T15:12:39;5.70;99.90
18384;DHT22;9318;48.644;9.456;2022-12-15T15:15:14;5.70;99.90
18384;DHT22;9318;48.644;9.456;2022-12-15T15:17:46;5.80;99.90
18384;DHT22;9318;48.644;9.456;2022-12-15T15:20:20;5.60;99.90
18384;DHT22;9318;48.644;9.456;2022-12-15T15:23:02;5.60;99.90
18384;DHT22;9318;48.644;9.456;2022-12-15T15:25:35;5.60;99.90
18384;DHT22;9318;48.644;9.456;2022-12-15T15:28:18;5.50;99.90
18384;DHT22;9318;48.644;9.456;2022-12-15T15:30:48;5.40;99.90
18384;DHT22;9318;48.644;9.456;2022-12-15T15:33:16;5.40;99.90
18384;DHT22;9318;48.644;9.456;2022-12-15T15:35:49;5.50;99.90
18384;DHT22;9318;48.644;9.456;2022-12-15T15:38:21;5.50;99.90
18384;DHT22;9318;48.644;9.456;2022-12-15T15:40:50;5.50;99.90
18384;DHT22;9318;48.644;9.456;2022-12-15T15:43:18;5.40;99.90
18384;DHT22;9318;48.644;9.456;2022-12-15T15:45:46;5.20;99.90
18384;DHT22;9318;48.644;9.456;2022-12-15T15:48:18;5.10;99.90
18384;DHT22;9318;48.644;9.456;2022-12-15T15:50:48;5.00;99.90
18384;DHT22;9318;48.644;9.456;2022-12-15T15:53:18;5.00;99.90
18384;DHT22;9318;48.644;9.456;2022-12-15T15:55:47;5.00;99.90
18384;DHT22;9318;48.644;9.456;2022-12-15T15:58:16;5.10;99.90
18384;DHT22;9318;48.644;9.456;2022-12-15T16:00:43;5.10;99.90
18384;DHT22;9318;48.644;9.456;2022-12-15T16:03:11;5.30;99.90
18384;DHT22;9318;48.644;9.456;2022-12-15T16:05:38;5.30;99.90
18384;DHT22;9318;48.644;9.456;2022-12-15T16:08:13;5.40;99.90
18384;DHT22;9318;48.644;9.456;2022-12-15T16:10:42;5.30;99.90
18384;DHT22;9318;48.644;9.456;2022-12-15T16:13:14;5.40;99.90
18384;DHT22;9318;48.644;9.456;2022-12-15T16:15:42;5.30;99.90
18384;DHT22;9318;48.644;9.456;2022-12-15T16:18:10;5.30;99.90
18384;DHT22;9318;48.644;9.456;2022-12-15T16:20:39;5.20;99.90
18384;DHT22;9318;48.644;9.456;2022-12-15T16:23:11;5.20;99.90
18384;DHT22;9318;48.644;9.456;2022-12-15T16:25:41;5.30;99.90
18384;DHT22;9318;48.644;9.456;2022-12-15T16:28:11;5.40;99.90
18384;DHT22;9318;48.644;9.456;2022-12-15T16:30:40;5.50;99.90
18384;DHT22;9318;48.644;9.456;2022-12-15T16:33:08;5.60;99.90
18384;DHT22;9318;48.644;9.456;2022-12-15T16:35:36;5.80;99.90
18384;DHT22;9318;48.644;9.456;2022-12-15T16:38:04;5.70;99.90
18384;DHT22;9318;48.644;9.456;2022-12-15T16:40:36;5.70;99.90
18384;DHT22;9318;48.644;9.456;2022-12-15T16:43:12;5.70;99.90
18384;DHT22;9318;48.644;9.456;2022-12-15T16:45:41;5.60;99.90
18384;DHT22;9318;48.644;9.456;2022-12-15T16:48:09;5.70;99.90
18384;DHT22;9318;48.644;9.456;2022-12-15T16:50:38;5.70;99.90
18384;DHT22;9318;48.644;9.456;2022-12-15T16:53:10;5.60;99.90
18384;DHT22;9318;48.644;9.456;2022-12-15T16:55:43;5.60;99.90
18384;DHT22;9318;48.644;9.456;2022-12-15T16:58:12;5.70;99.90
18384;DHT22;9318;48.644;9.456;2022-12-15T17:00:41;5.80;99.90
18384;DHT22;9318;48.644;9.456;2022-12-15T17:03:11;5.90;99.90